Flight Track Log - Related Links

Times and Time Zones

All times are in EDT time to prevent confusion due to time zone crossing. See the SWR441 flight status page for this flight to view local times or setup timezone preferences in your user account.

Time Position Orientation Groundspeed Altitude Reporting Facility
EDT Latitude Longitude Course Direction KTS MPH feet Rate Location/Type
Fri 02:00:48 AM 51.5070 0.0014 91° East 132 152 300  Level FlightAware
Fri 02:00:48 AM 51.5070 0.0050 274° West 103 119 1,800 7,200 Climbing FlightAware
Fri 02:01:03 AM 51.5080 -0.0040 280° West 103 119 2,100 1,000 Climbing FlightAware
Fri 02:01:18 AM 51.5120 -0.0140 303° West 115 132 2,300 600 Climbing FlightAware
Fri 02:01:33 AM 51.5190 -0.0230 321° Northwest 131 151 2,400 -1,667 Climbing FlightAware
Fri 02:01:54 AM 51.5356 -0.0316 321° Northwest 172 198 1,300 1,200 Descending FlightAware
Fri 02:01:58 AM 51.5340 -0.0310 321° Northwest 149 171 2,900 750 Climbing FlightAware
Fri 02:02:18 AM 51.5542 -0.0341 321° Northwest 200 230 1,600 600 Descending FlightAware
Fri 02:02:18 AM 51.5500 -0.0350 321° Northwest 172 198 3,100 3,600 Climbing FlightAware
Fri 02:02:43 AM 51.5670 -0.0170 33° Northeast 222 255 3,100  Level FlightAware
Fri 02:02:53 AM 51.5710 0.0060 74° East 229 264 3,100 240 Level FlightAware
Fri 02:03:08 AM 51.5720 0.0320 86° East 240 276 3,200 -2,813 Climbing FlightAware
Fri 02:03:25 AM 51.5732 0.0674 86° East 232 267 1,600  Descending FlightAware
Fri 02:03:38 AM 51.5730 0.0830 86° East 256 295 3,200  Climbing FlightAware
Fri 02:04:01 AM 51.5742 0.1386 86° East 254 292 1,600  Descending FlightAware
Fri 02:04:03 AM 51.5740 0.1350 86° East 273 314 3,200 5,647 Climbing FlightAware
Fri 02:04:18 AM 51.5740 0.1680 86° East 276 318 3,200 -5,625 Level FlightAware
Fri 02:04:19 AM 51.5746 0.1757 86° East 256 295 1,700 1,600 Descending FlightAware
Fri 02:04:48 AM 51.5750 0.2320 89° East 279 321 4,000 3,222 Climbing FlightAware
Fri 02:05:13 AM 51.5760 0.2750 88° East 282 325 4,600 218 Climbing FlightAware
Fri 02:05:43 AM 51.5762 0.3505 88° East 266 306 4,200 2,000 Descending FlightAware
Fri 02:05:43 AM 51.5760 0.3380 88° East 281 323 5,600 3,800 Climbing FlightAware
Fri 02:06:13 AM 51.5770 0.4060 89° East 286 329 6,100 -1,250 Climbing FlightAware
Fri 02:06:31 AM 51.5755 0.4529 89° East 268 308 4,600 -2,500 Descending FlightAware
Fri 02:06:49 AM 51.5639 0.4866 119° Southeast 268 308 4,600 4,364 Level FlightAware
Fri 02:06:53 AM 51.5630 0.4880 119° Southeast 291 335 6,200 2,824 Climbing FlightAware
Fri 02:07:23 AM 51.5400 0.5410 125° Southeast 291 335 6,200 -1,920 Level FlightAware
Fri 02:07:43 AM 51.5224 0.5826 125° Southeast 270 311 4,600  Descending FlightAware
Fri 02:07:53 AM 51.5180 0.5930 125° Southeast 290 334 6,200 4,800 Climbing FlightAware
Fri 02:08:03 AM 51.5100 0.6100 127° Southeast 289 333 6,200 -3,692 Level FlightAware
Fri 02:08:19 AM 51.4951 0.6459 127° Southeast 266 306 4,600  Descending FlightAware
Fri 02:08:33 AM 51.4870 0.6630 127° Southeast 292 336 6,200 2,727 Climbing FlightAware
Fri 02:09:03 AM 51.4620 0.7200 125° Southeast 294 338 6,600 933 Climbing FlightAware
Fri 02:09:18 AM 51.4510 0.7450 125° Southeast 295 339 6,900 1,350 Climbing FlightAware
Fri 02:09:43 AM 51.4220 0.7750 147° Southeast 289 333 7,500 -558 Climbing FlightAware
Fri 02:10:01 AM 51.3954 0.7852 147° Southeast 276 318 6,500 1,400 Descending FlightAware
Fri 02:10:13 AM 51.3830 0.7900 147° Southeast 292 336 8,200 4,667 Climbing FlightAware
Fri 02:10:28 AM 51.3640 0.7960 169° South 295 339 8,600 -1,400 Climbing FlightAware
Fri 02:10:43 AM 51.3396 0.8048 169° South 280 322 7,500 1,680 Descending FlightAware
Fri 02:10:53 AM 51.3290 0.8090 169° South 297 342 9,300 5,040 Climbing FlightAware
Fri 02:11:08 AM 51.3080 0.8160 168° South 300 345 9,600 1,091 Climbing FlightAware
Fri 02:11:48 AM 51.2540 0.8350 168° South 316 364 10,300  Climbing FlightAware
Fri 02:12:19 AM 51.2054 0.8530 168° South 292 336 9,600 1,600 Descending FlightAware
Fri 02:12:33 AM 51.1890 0.8590 168° South 313 360 11,500 1,500 Climbing FlightAware
Fri 02:12:55 AM 51.1541 0.8704 168° South 292 336 10,500 1,350 Descending FlightAware
Fri 02:13:13 AM 51.1320 0.8720 168° South 320 368 12,400 3,103 Climbing FlightAware
Fri 02:13:53 AM 51.0710 0.8770 177° South 321 369 13,500 1,660 Climbing FlightAware
Fri 02:14:00 AM 51.0587 0.8780 177° South 320 368 13,700 -1,615 Climbing FlightAware
Fri 02:14:19 AM 51.0294 0.8803 177° South 302 348 12,800 1,600 Descending FlightAware
Fri 02:14:30 AM 51.0133 0.8822 177° South 323 372 14,500 1,200 Climbing FlightAware
Fri 02:14:49 AM 50.9850 0.8858 177° South 306 352 13,400 1,421 Descending FlightAware
Fri 02:15:08 AM 50.9559 0.8895 177° South 330 380 15,400 1,429 Climbing FlightAware
Fri 02:15:31 AM 50.9207 0.8943 177° South 308 354 14,400 -766 Descending FlightAware
Fri 02:15:55 AM 50.8829 0.8994 175° South 314 361 14,800 4,222 Climbing FlightAware
Fri 02:15:58 AM 50.8870 0.8990 175° South 342 394 16,300 10,800 Climbing FlightAware
Fri 02:16:05 AM 50.8671 0.9015 175° South 342 394 16,600 -522 Climbing FlightAware
Fri 02:16:44 AM 50.8087 0.8950 175° South 318 366 15,900 -387 Descending FlightAware
Fri 02:17:07 AM 50.7788 0.8649 212° Southwest 326 375 16,200 3,077 Climbing FlightAware
Fri 02:17:23 AM 50.7620 0.8470 212° Southwest 333 383 17,900 4,065 Climbing FlightAware
Fri 02:17:38 AM 50.7405 0.8244 214° Southwest 336 387 18,300 -1,313 Climbing FlightAware
Fri 02:17:55 AM 50.7178 0.7982 214° Southwest 336 387 17,200 1,200 Descending FlightAware
Fri 02:18:08 AM 50.7017 0.7823 214° Southwest 343 395 18,900 1,000 Climbing FlightAware
Fri 02:18:31 AM 50.6705 0.7474 214° Southwest 342 394 17,800 1,000 Descending FlightAware
Fri 02:18:38 AM 50.6615 0.7386 214° Southwest 349 402 19,400 1,000 Climbing FlightAware
Fri 02:18:55 AM 50.6378 0.7133 214° Southwest 344 396 18,200 1,077 Descending FlightAware
Fri 02:19:17 AM 50.6082 0.6832 214° Southwest 356 410 20,100 1,000 Climbing FlightAware
Fri 02:19:43 AM 50.5717 0.6449 214° Southwest 350 403 19,000 1,000 Descending FlightAware
Fri 02:19:53 AM 50.5582 0.6324 214° Southwest 366 421 20,700 1,286 Climbing FlightAware
Fri 02:20:25 AM 50.5119 0.5831 214° Southwest 354 407 19,900 -536 Descending FlightAware
Fri 02:20:49 AM 50.4781 0.5479 214° Southwest 358 412 20,200 4,071 Climbing FlightAware
Fri 02:20:53 AM 50.4750 0.5460 214° Southwest 370 426 21,800 500 Climbing FlightAware
Fri 02:21:13 AM 50.4439 0.5121 214° Southwest 364 419 20,400 267 Descending FlightAware
Fri 02:21:38 AM 50.4130 0.4800 214° Southwest 388 447 22,000 125 Climbing FlightAware
Fri 02:22:01 AM 50.3712 0.4365 214° Southwest 386 444 20,500  Descending FlightAware
Fri 02:22:18 AM 50.3510 0.4170 214° Southwest 409 471 22,000 500 Climbing FlightAware
Fri 02:22:37 AM 50.3146 0.3787 214° Southwest 396 456 20,800 900 Descending FlightAware
Fri 02:22:58 AM 50.2840 0.3550 214° Southwest 420 483 22,600 3,500 Climbing FlightAware
Fri 02:23:13 AM 50.2570 0.3490 188° South 432 497 22,900 -1,636 Climbing FlightAware
Fri 02:23:31 AM 50.2136 0.3642 188° South 388 447 21,700 1,000 Descending FlightAware
Fri 02:23:43 AM 50.1950 0.3800 188° South 438 504 23,400 800 Climbing FlightAware
Fri 02:24:01 AM 50.1618 0.4152 188° South 388 447 22,100 -1,833 Descending FlightAware
Fri 02:24:19 AM 50.1313 0.4467 146° Southeast 390 449 22,300 4,909 Climbing FlightAware
Fri 02:24:23 AM 50.1290 0.4500 146° Southeast 441 507 23,900 800 Climbing FlightAware
Fri 02:24:49 AM 50.0808 0.4996 146° Southeast 386 444 22,700 750 Descending FlightAware
Fri 02:25:03 AM 50.0590 0.5210 146° Southeast 443 510 24,400 667 Climbing FlightAware
Fri 02:25:25 AM 50.0192 0.5651 146° Southeast 386 444 23,100 800 Descending FlightAware
Fri 02:25:48 AM 49.9850 0.6010 146° Southeast 443 510 25,000 1,143 Climbing FlightAware
Fri 02:26:07 AM 49.9480 0.6407 146° Southeast 386 444 23,900 -1,135 Descending FlightAware
Fri 02:26:25 AM 49.9179 0.6727 146° Southeast 382 440 24,300 4,615 Climbing FlightAware
Fri 02:26:33 AM 49.9090 0.6820 146° Southeast 434 499 25,900 2,500 Climbing FlightAware
Fri 02:27:13 AM 49.8430 0.7500 146° Southeast 435 501 26,300 -931 Climbing FlightAware
Fri 02:27:31 AM 49.8081 0.7871 146° Southeast 382 440 25,000 857 Descending FlightAware
Fri 02:27:55 AM 49.7708 0.8335 146° Southeast 435 501 26,900 857 Climbing FlightAware
Fri 02:28:13 AM 49.7441 0.8719 146° Southeast 380 437 25,600 750 Descending FlightAware
Fri 02:28:35 AM 49.7113 0.9159 146° Southeast 433 498 27,400 811 Climbing FlightAware
Fri 02:28:50 AM 49.6899 0.9462 146° Southeast 380 437 26,100 -2,000 Descending FlightAware
Fri 02:29:08 AM 49.6631 0.9831 138° Southeast 380 437 26,300 4,750 Climbing FlightAware
Fri 02:29:14 AM 49.6533 0.9957 138° Southeast 428 493 28,000 1,000 Climbing FlightAware
Fri 02:29:38 AM 49.6189 1.0444 138° Southeast 378 435 26,800 698 Descending FlightAware
Fri 02:29:57 AM 49.5904 1.0829 138° Southeast 426 490 28,500 667 Climbing FlightAware
Fri 02:30:14 AM 49.5662 1.1175 138° Southeast 376 433 27,200 774 Descending FlightAware
Fri 02:30:28 AM 49.5451 1.1456 138° Southeast 426 490 28,900 600 Climbing FlightAware
Fri 02:30:44 AM 49.5220 1.1783 138° Southeast 376 433 27,500 188 Descending FlightAware
Fri 02:31:00 AM 49.4987 1.2083 138° Southeast 430 495 29,000  Climbing FlightAware
Fri 02:31:20 AM 49.4687 1.2507 138° Southeast 386 444 27,500  Descending FlightAware
Fri 02:31:41 AM 49.4371 1.2928 138° Southeast 436 502 29,000  Climbing FlightAware
Fri 02:32:02 AM 49.4047 1.3387 138° Southeast 394 453 27,500  Descending FlightAware
Fri 02:32:19 AM 49.3787 1.3717 138° Southeast 443 510 29,000 1,915 Climbing FlightAware
Fri 02:32:49 AM 49.3321 1.4360 138° Southeast 441 507 29,000 -1,837 Level FlightAware
Fri 02:33:08 AM 49.3036 1.4753 138° Southeast 392 451 27,500  Descending FlightAware
Fri 02:33:24 AM 49.2782 1.5083 138° Southeast 443 510 29,000  Climbing FlightAware
Fri 02:33:44 AM 49.2481 1.5497 138° Southeast 392 451 27,500  Descending FlightAware
Fri 02:33:57 AM 49.2278 1.5766 138° Southeast 444 511 29,000  Climbing FlightAware
Fri 02:34:14 AM 49.2015 1.6122 138° Southeast 394 453 27,500  Descending FlightAware
Fri 02:34:27 AM 49.1812 1.6391 138° Southeast 445 512 29,000  Climbing FlightAware
Fri 02:34:44 AM 49.1553 1.6746 138° Southeast 392 451 27,500  Descending FlightAware
Fri 02:34:58 AM 49.1342 1.7013 138° Southeast 445 512 29,000  Climbing FlightAware
Fri 02:35:20 AM 49.0998 1.7495 138° Southeast 394 453 27,500  Descending FlightAware
Fri 02:35:31 AM 49.0830 1.7695 138° Southeast 445 512 29,000  Climbing FlightAware
Fri 02:35:50 AM 49.0531 1.8119 138° Southeast 394 453 27,500  Descending FlightAware
Fri 02:36:01 AM 49.0365 1.8333 138° Southeast 444 511 29,000  Climbing FlightAware
Fri 02:36:20 AM 49.0068 1.8731 138° Southeast 392 451 27,500  Descending FlightAware
Fri 02:36:31 AM 48.9892 1.8951 138° Southeast 444 511 29,000  Climbing FlightAware
Fri 02:36:50 AM 48.9601 1.9350 138° Southeast 392 451 27,500  Descending FlightAware
Fri 02:37:03 AM 48.9405 1.9605 138° Southeast 444 511 29,000 2,045 Climbing FlightAware
Fri 02:37:34 AM 48.8924 2.0239 139° Southeast 443 510 29,000  Level FlightAware
Fri 02:38:05 AM 48.8449 2.0876 139° Southeast 442 509 29,000 -1,957 Level FlightAware
Fri 02:38:20 AM 48.8211 2.1193 139° Southeast 394 453 27,500  Descending FlightAware
Fri 02:38:37 AM 48.7958 2.1506 139° Southeast 442 509 29,000 1,875 Climbing FlightAware
Fri 02:39:08 AM 48.7476 2.2132 139° Southeast 442 509 29,000 -1,837 Level FlightAware
Fri 02:39:26 AM 48.7191 2.2528 139° Southeast 392 451 27,500  Descending FlightAware
Fri 02:39:38 AM 48.7010 2.2760 139° Southeast 442 509 29,000 1,957 Climbing FlightAware
Fri 02:40:12 AM 48.6477 2.3447 140° Southeast 443 510 29,000  Level FlightAware
Fri 02:40:43 AM 48.5998 2.4074 139° Southeast 443 510 29,000  Level FlightAware
Fri 02:41:14 AM 48.5521 2.4677 140° Southeast 443 510 29,000  Level FlightAware
Fri 02:41:50 AM 48.4960 2.5426 138° Southeast 444 511 29,000  Level FlightAware
Fri 02:42:20 AM 48.4489 2.6031 140° Southeast 444 511 29,000  Level FlightAware
Fri 02:42:51 AM 48.4001 2.6651 140° Southeast 440 506 29,000  Level FlightAware
Fri 02:43:24 AM 48.3506 2.7284 140° Southeast 437 503 29,000  Level FlightAware
Fri 02:43:54 AM 48.3037 2.7892 139° Southeast 437 503 29,000  Level FlightAware
Fri 02:44:16 AM 48.2693 2.8322 140° Southeast 440 506 29,000  Level FlightAware
Fri 02:44:47 AM 48.2198 2.8904 142° Southeast 442 509 29,000  Level FlightAware
Fri 02:45:17 AM 48.1703 2.9464 143° Southeast 441 507 29,000  Level FlightAware
Fri 02:45:51 AM 48.1169 3.0080 142° Southeast 442 509 29,000  Level FlightAware
Fri 02:46:17 AM 48.0730 3.0522 146° Southeast 443 510 29,000  Level FlightAware
Fri 02:46:55 AM 48.0002 3.1004 156° South 443 510 29,000  Level FlightAware
Fri 02:47:43 AM 47.9160 3.1540 157° South 444 511 29,000  Level FlightAware
Fri 02:48:28 AM 47.8290 3.2070 158° South 443 510 29,000  Level FlightAware
Fri 02:49:08 AM 47.7540 3.2540 157° South 441 507 29,000  Level FlightAware
Fri 02:49:53 AM 47.6680 3.3080 157° South 438 504 29,000  Level FlightAware
Fri 02:50:33 AM 47.5930 3.3540 158° South 438 504 29,000  Level FlightAware
Fri 02:51:13 AM 47.5200 3.4000 157° South 437 503 29,000  Level FlightAware
Fri 02:51:58 AM 47.4360 3.4510 158° South 435 501 29,000  Level FlightAware
Fri 02:52:38 AM 47.3620 3.4970 157° South 434 499 29,000  Level FlightAware
Fri 02:53:18 AM 47.2870 3.5420 158° South 435 501 29,000  Level FlightAware
Fri 02:54:03 AM 47.2020 3.5940 157° South 435 501 29,000  Level FlightAware
Fri 02:54:43 AM 47.1330 3.6360 158° South 435 501 29,000  Level FlightAware
Fri 02:55:18 AM 47.0659 3.6953 149° Southeast 423 487 29,000  Level FlightAware
Fri 02:55:29 AM 47.0541 3.7207 124° Southeast 414 476 29,000  Level FlightAware
Fri 02:55:37 AM 47.0481 3.7410 113° Southeast 409 471 29,000  Level FlightAware
Fri 02:56:12 AM 47.0242 3.8289 112° Southeast 410 472 29,000  Level FlightAware
Fri 02:56:42 AM 47.0042 3.9093 110° East 407 468 29,000  Level FlightAware
Fri 02:57:37 AM 46.9684 4.0511 110° East 406 467 29,000  Level FlightAware
Fri 02:58:08 AM 46.9477 4.1307 111° Southeast 405 466 29,000 -94 Level FlightAware
Fri 02:58:41 AM 46.9258 4.2151 111° Southeast 407 468 28,900 -667 Descending FlightAware
Fri 02:59:38 AM 46.8890 4.3540 111° Southeast 408 470 28,000 -947 Descending FlightAware
Fri 03:02:00 AM 46.7980 4.6062 118° Southeast  Level Estimated
Fri 03:03:00 AM 46.7594 4.7126 118° Southeast  Level Estimated
Fri 03:04:00 AM 46.7207 4.8187 118° Southeast  Level Estimated
Fri 03:05:00 AM 46.6794 4.9318 118° Southeast  Level Estimated
Fri 03:06:00 AM 46.6379 5.0447 118° Southeast  Level Estimated
Fri 03:07:00 AM 46.5962 5.1574 118° Southeast  Level Estimated
Fri 03:08:00 AM 46.5545 5.2700 118° Southeast  Level Estimated
Fri 03:09:00 AM 46.5127 5.3824 118° Southeast  Level Estimated
Fri 03:10:00 AM 46.4708 5.4946 118° Southeast  Level Estimated
Fri 03:11:00 AM 46.4287 5.6066 119° Southeast  Level Estimated
Fri 03:12:00 AM 46.3866 5.7185 119° Southeast  Level Estimated
Fri 03:13:00 AM 46.3443 5.8302 119° Southeast  Level Estimated
Fri 03:14:00 AM 46.3019 5.9417 119° Southeast  Level Estimated
Fri 03:15:00 AM 46.2594 6.0531 119° Southeast  Level Estimated
Fri 03:16:00 AM 46.2381 6.1090 119° Southeast  Level Estimated
Fri 03:17:00 AM 46.2381 6.1090 North  Level Estimated
Fri 03:18:00 AM 46.2381 6.1090 North  Level Estimated
Fri 03:19:00 AM 46.2381 6.1090 North  Level Estimated
Fri 03:20:00 AM 46.2381 6.1090 North  Level Estimated
Fri 03:21:00 AM 46.2381 6.1090 North  Level Estimated
Fri 03:22:00 AM 46.2381 6.1090 North  Level Estimated
Fri 03:23:00 AM 46.2381 6.1090 North  Level Estimated
Fri 03:24:00 AM 46.2381 6.1090 North  Level Estimated
Fri 03:25:00 AM 46.2381 6.1090 North  Level Estimated
Fri 03:26:00 AM 46.2381 6.1090 North  Level Estimated
Fri 03:27:00 AM 46.2381 6.1090 North  Level Estimated

Login

Don't have an account? Register now (free) for customized features, flight alerts, and more!